createdAt,value
2023-01-13T00:04:06.046Z,8.99
2023-01-13T00:14:10.474Z,8.82
2023-01-13T00:24:13.434Z,8.72
2023-01-13T00:34:17.775Z,8.54
2023-01-13T00:44:20.856Z,8.49
2023-01-13T00:54:25.246Z,8.46
2023-01-13T01:04:28.312Z,8.35
2023-01-13T01:14:32.670Z,8.30
2023-01-13T01:24:35.662Z,8.56
2023-01-13T01:34:40.100Z,8.60
2023-01-13T01:45:01.242Z,8.45
2023-01-13T01:55:10.659Z,8.34
2023-01-13T02:05:14.239Z,8.21
2023-01-13T02:15:22.844Z,8.06
2023-01-13T02:25:47.107Z,7.94
2023-01-13T02:35:57.381Z,7.89
2023-01-13T02:46:06.228Z,7.95
2023-01-13T02:56:12.165Z,8.15
2023-01-13T03:06:37.641Z,8.33
2023-01-13T03:16:53.076Z,8.43
2023-01-13T03:27:02.749Z,8.64
2023-01-13T03:37:08.942Z,8.71
2023-01-13T03:47:15.940Z,8.71
2023-01-13T03:57:21.706Z,8.61
2023-01-13T04:07:29.433Z,8.48
2023-01-13T04:17:33.524Z,8.19
2023-01-13T04:27:36.470Z,8.13
2023-01-13T04:37:40.820Z,8.11
2023-01-13T04:47:43.765Z,8.18
2023-01-13T04:57:48.234Z,8.14
2023-01-13T05:07:51.215Z,8.06
2023-01-13T05:17:55.521Z,7.97
2023-01-13T05:27:59.920Z,7.83
2023-01-13T05:38:04.249Z,7.82
2023-01-13T05:48:07.293Z,7.73
2023-01-13T05:58:13.085Z,7.64
2023-01-13T06:08:16.356Z,7.61
2023-01-13T06:18:20.783Z,7.52
2023-01-13T06:28:23.794Z,7.49
2023-01-13T06:38:32.034Z,7.58
2023-01-13T06:48:35.966Z,7.68
2023-01-13T06:58:40.384Z,7.76
2023-01-13T07:08:43.332Z,7.85
2023-01-13T07:18:47.806Z,7.82
2023-01-13T07:28:50.872Z,7.74
2023-01-13T07:38:58.475Z,7.71
2023-01-13T07:49:01.569Z,7.64
2023-01-13T07:59:05.953Z,7.61
2023-01-13T08:09:09.798Z,7.62
2023-01-13T08:19:14.250Z,7.57
2023-01-13T08:29:17.475Z,7.64
2023-01-13T08:39:21.910Z,7.72
2023-01-13T08:49:25.980Z,7.92
2023-01-13T08:59:30.457Z,8.24
2023-01-13T09:09:33.544Z,8.32
2023-01-13T09:19:38.089Z,8.51
2023-01-13T09:29:41.131Z,8.89
2023-01-13T09:39:46.087Z,8.90
2023-01-13T09:49:48.985Z,8.99
2023-01-13T09:59:53.317Z,8.94
2023-01-13T10:09:59.523Z,8.95
2023-01-13T10:20:16.759Z,9.48
2023-01-13T10:30:23.451Z,9.33
2023-01-13T10:40:27.852Z,8.71
2023-01-13T10:50:31.690Z,8.16
2023-01-13T11:00:36.881Z,8.15
2023-01-13T11:10:47.112Z,8.34
2023-01-13T11:20:52.976Z,8.50
2023-01-13T11:31:01.621Z,8.75
2023-01-13T11:41:15.334Z,8.95
2023-01-13T11:51:26.531Z,9.02
2023-01-13T12:01:44.853Z,9.02
2023-01-13T12:12:17.786Z,9.17
2023-01-13T12:22:27.628Z,9.23
2023-01-13T12:32:37.195Z,9.29
2023-01-13T12:43:08.727Z,9.43
2023-01-13T12:53:36.707Z,9.30
2023-01-13T13:04:04.103Z,9.31
2023-01-13T13:14:08.557Z,9.35
2023-01-13T13:24:13.171Z,9.33
2023-01-13T13:34:25.112Z,9.55
2023-01-13T13:44:59.216Z,9.62
2023-01-13T13:55:17.340Z,9.53
2023-01-13T14:05:23.810Z,9.45
2023-01-13T14:15:33.360Z,9.44
2023-01-13T14:25:40.433Z,9.35
2023-01-13T14:36:18.222Z,9.28
2023-01-13T14:46:25.386Z,9.37
2023-01-13T14:56:43.307Z,9.36
2023-01-13T15:06:52.788Z,9.33
2023-01-13T15:16:56.993Z,9.30
2023-01-13T15:27:01.750Z,9.28
2023-01-13T15:37:04.749Z,9.28
2023-01-13T15:47:11.013Z,9.21
2023-01-13T15:57:22.606Z,9.25
2023-01-13T16:07:27.363Z,9.25
2023-01-13T16:17:34.279Z,9.31
2023-01-13T16:27:38.669Z,9.33
2023-01-13T16:37:41.740Z,9.42
2023-01-13T16:47:46.135Z,9.33
2023-01-13T16:57:49.162Z,9.42
2023-01-13T17:07:53.695Z,9.32
2023-01-13T17:17:57.537Z,9.18
2023-01-13T17:28:01.931Z,8.87
2023-01-13T17:38:04.932Z,8.80
2023-01-13T17:48:09.406Z,8.61
2023-01-13T17:58:12.349Z,8.54
2023-01-13T18:08:16.744Z,8.43
2023-01-13T18:18:19.704Z,8.56
2023-01-13T18:28:24.445Z,8.75
2023-01-13T18:38:27.461Z,8.70
2023-01-13T18:48:32.735Z,8.68
2023-01-13T18:58:35.775Z,8.83
2023-01-13T19:08:40.250Z,8.20
2023-01-13T19:18:43.660Z,7.87
2023-01-13T19:28:48.621Z,7.66
2023-01-13T19:38:53.890Z,7.87
2023-01-13T19:48:58.243Z,7.86
2023-01-13T19:59:01.229Z,7.89
2023-01-13T20:09:05.620Z,7.96
2023-01-13T20:19:08.584Z,8.20
2023-01-13T20:29:13.128Z,8.18
2023-01-13T20:39:19.323Z,8.06
2023-01-13T20:49:23.702Z,8.13
2023-01-13T20:59:26.761Z,8.29
2023-01-13T21:09:31.132Z,8.17
2023-01-13T21:19:34.330Z,8.07
2023-01-13T21:29:38.676Z,8.00
2023-01-13T21:39:41.718Z,7.87
2023-01-13T21:49:46.181Z,7.78
2023-01-13T21:59:49.433Z,7.75
2023-01-13T22:09:53.842Z,7.62
2023-01-13T22:19:57.427Z,7.50
2023-01-13T22:30:01.819Z,7.51
2023-01-13T22:40:05.671Z,7.57
2023-01-13T22:50:12.656Z,7.43
2023-01-13T23:00:19.485Z,7.47
2023-01-13T23:10:24.404Z,7.43
2023-01-13T23:20:27.392Z,7.38
2023-01-13T23:30:31.879Z,7.29
2023-01-13T23:40:35.417Z,7.21
2023-01-13T23:50:39.799Z,7.04
